Goodland, KS

11:32 AM MDT on July 26, 2017 (GMT -0600)
Renner-Goodland Municipal | | Change Station

Elev 3655 ft 39.37 °N, 101.70 °W | Updated 39 minutes ago

Overcast
Overcast
75 °F
Feels Like 75 °F
N
20
Wind Variable Wind from NNW
Gusts 29 mph

Today
High -- | Low -- °F
--% Chance of Precip.
Yesterday
High -- | Low -- °F
Precip. -- in
Pressure 29.96 in
Visibility 10.0 miles
Clouds Overcast 1800 ft
Dew Point 66 °F
Humidity 73%
Rainfall 0.00 in
Snow Depth Not available.
5:41 AM 8:04 PM
Waxing Crescent, 14% visible
METAR KGLD 261653Z AUTO 34017G25KT 10SM OVC018 24/19 A3010 RMK AO2 PK WND 33028/1611 SLP145 T02390189
Pressure 29.96 in
Visibility 10.0 miles
Clouds Overcast 1800 ft
Dew Point 66 °F
Humidity 73%
Rainfall 0.00 in
Snow Depth Not available.
5:41 AM 8:04 PM
Waxing Crescent, 14% visible
METAR KGLD 261653Z AUTO 34017G25KT 10SM OVC018 24/19 A3010 RMK AO2 PK WND 33028/1611 SLP145 T02390189

Get Severe Weather Alerts

Thanks for signing up!

Be on the lookout for a verification email in your inbox.

You'll start receiving the daily forecast at 6 AM.

×

10-Day Weather Forecast

Almanac

Astronomy

Jul. 26, 2017 Rise Set
Actual Time
Civil Twilight
Nautical Twilight
Astronomical Twilight
Moon
Length of Visible Light
Length of Day
Tomorrow will be .
, % of the Moon is Illuminated

Today's Extremes

State Highs State Lows

Community

WunderPhotos

Category 6

Welcome to Category 6. This is the collective home for Weather Underground's featured writeups by Dr. Jeff Masters (right), Bob Henson (left), Chris Burt, and other regular contributors.

Nearby

Air Quality

  Air Quality AQ Index Pollutant
Not available.

Snow Depth

Station Depth Elevation

Earthquake Activity

City Distance Mag. Time & Date
Minimum magnitude displayed is 2.5.

Coastal Water Temperatures

Place Temperature

Stations

Nearby Weather Stations

Station Location Temp. Windchill Dew Point Humidity Wind Precip. Elev Updated Type
                   

Watches & Warnings

There are currently no watches in effect.